sensor_id;sensor_type;location;lat;lon;timestamp;temperature;humidity
44121;DHT22;29783;52.504;13.478;2022-10-15T00:01:43;13.10;88.70
44121;DHT22;29783;52.504;13.478;2022-10-15T00:04:09;13.10;88.70
44121;DHT22;29783;52.504;13.478;2022-10-15T00:06:35;13.10;88.80
44121;DHT22;29783;52.504;13.478;2022-10-15T00:09:00;13.20;89.00
44121;DHT22;29783;52.504;13.478;2022-10-15T00:11:27;13.20;89.50
44121;DHT22;29783;52.504;13.478;2022-10-15T00:13:56;13.10;89.90
44121;DHT22;29783;52.504;13.478;2022-10-15T00:16:24;13.00;90.20
44121;DHT22;29783;52.504;13.478;2022-10-15T00:18:51;13.00;90.50
44121;DHT22;29783;52.504;13.478;2022-10-15T00:21:19;13.00;90.70
44121;DHT22;29783;52.504;13.478;2022-10-15T00:23:46;13.00;90.70
44121;DHT22;29783;52.504;13.478;2022-10-15T00:26:18;13.00;91.00
44121;DHT22;29783;52.504;13.478;2022-10-15T00:28:44;13.00;91.20
44121;DHT22;29783;52.504;13.478;2022-10-15T00:31:15;13.00;91.40
44121;DHT22;29783;52.504;13.478;2022-10-15T00:33:42;12.90;91.70
44121;DHT22;29783;52.504;13.478;2022-10-15T00:36:15;12.90;92.00
44121;DHT22;29783;52.504;13.478;2022-10-15T00:38:41;12.90;92.10
44121;DHT22;29783;52.504;13.478;2022-10-15T00:41:12;12.90;92.20
44121;DHT22;29783;52.504;13.478;2022-10-15T00:43:45;12.90;92.30
44121;DHT22;29783;52.504;13.478;2022-10-15T00:46:24;12.90;92.40
44121;DHT22;29783;52.504;13.478;2022-10-15T00:49:11;12.90;92.50
44121;DHT22;29783;52.504;13.478;2022-10-15T00:51:44;12.90;92.60
44121;DHT22;29783;52.504;13.478;2022-10-15T00:54:11;12.90;92.70
44121;DHT22;29783;52.504;13.478;2022-10-15T00:56:42;12.90;92.80
44121;DHT22;29783;52.504;13.478;2022-10-15T00:59:10;12.90;92.90
44121;DHT22;29783;52.504;13.478;2022-10-15T01:01:37;13.00;93.20
44121;DHT22;29783;52.504;13.478;2022-10-15T01:04:06;12.90;93.30
44121;DHT22;29783;52.504;13.478;2022-10-15T01:06:33;13.00;93.50
44121;DHT22;29783;52.504;13.478;2022-10-15T01:08:59;12.90;93.40
44121;DHT22;29783;52.504;13.478;2022-10-15T01:11:47;13.00;93.50
44121;DHT22;29783;52.504;13.478;2022-10-15T01:14:40;13.00;93.70
44121;DHT22;29783;52.504;13.478;2022-10-15T01:25:44;12.90;94.30
44121;DHT22;29783;52.504;13.478;2022-10-15T01:28:18;13.00;94.40
44121;DHT22;29783;52.504;13.478;2022-10-15T01:30:46;13.00;94.50
44121;DHT22;29783;52.504;13.478;2022-10-15T01:33:28;13.00;94.60
44121;DHT22;29783;52.504;13.478;2022-10-15T01:36:06;13.00;94.70
44121;DHT22;29783;52.504;13.478;2022-10-15T01:38:55;13.00;94.60
44121;DHT22;29783;52.504;13.478;2022-10-15T01:41:40;13.00;94.70
44121;DHT22;29783;52.504;13.478;2022-10-15T01:44:10;13.10;94.80
44121;DHT22;29783;52.504;13.478;2022-10-15T01:46:56;13.00;94.80
44121;DHT22;29783;52.504;13.478;2022-10-15T01:49:28;13.00;94.80
44121;DHT22;29783;52.504;13.478;2022-10-15T01:51:59;13.00;94.80
44121;DHT22;29783;52.504;13.478;2022-10-15T01:54:27;13.00;94.90
44121;DHT22;29783;52.504;13.478;2022-10-15T01:56:54;13.00;94.80
44121;DHT22;29783;52.504;13.478;2022-10-15T01:59:27;13.10;94.80
44121;DHT22;29783;52.504;13.478;2022-10-15T02:01:54;13.10;94.80
44121;DHT22;29783;52.504;13.478;2022-10-15T02:04:22;13.10;94.80
44121;DHT22;29783;52.504;13.478;2022-10-15T02:07:09;13.10;94.80
44121;DHT22;29783;52.504;13.478;2022-10-15T02:09:57;13.10;94.80
44121;DHT22;29783;52.504;13.478;2022-10-15T02:18:01;13.10;94.80
44121;DHT22;29783;52.504;13.478;2022-10-15T02:20:50;13.10;94.90
44121;DHT22;29783;52.504;13.478;2022-10-15T02:23:25;13.10;94.80
44121;DHT22;29783;52.504;13.478;2022-10-15T02:25:52;13.10;94.80
44121;DHT22;29783;52.504;13.478;2022-10-15T02:28:20;13.00;94.90
44121;DHT22;29783;52.504;13.478;2022-10-15T02:30:50;13.10;94.90
44121;DHT22;29783;52.504;13.478;2022-10-15T02:33:20;13.00;94.90
44121;DHT22;29783;52.504;13.478;2022-10-15T02:35:48;13.00;94.90
44121;DHT22;29783;52.504;13.478;2022-10-15T02:38:18;13.10;95.00
44121;DHT22;29783;52.504;13.478;2022-10-15T02:40:45;13.00;94.90
44121;DHT22;29783;52.504;13.478;2022-10-15T02:43:13;13.00;95.00
44121;DHT22;29783;52.504;13.478;2022-10-15T02:45:40;13.00;95.00
44121;DHT22;29783;52.504;13.478;2022-10-15T02:48:06;13.00;95.00
44121;DHT22;29783;52.504;13.478;2022-10-15T02:50:32;13.00;95.10
44121;DHT22;29783;52.504;13.478;2022-10-15T02:52:58;13.00;95.10
44121;DHT22;29783;52.504;13.478;2022-10-15T02:55:24;13.00;95.20
44121;DHT22;29783;52.504;13.478;2022-10-15T02:57:50;13.00;95.20
44121;DHT22;29783;52.504;13.478;2022-10-15T03:00:16;13.00;95.10
44121;DHT22;29783;52.504;13.478;2022-10-15T03:02:43;13.00;95.10
44121;DHT22;29783;52.504;13.478;2022-10-15T03:05:09;13.00;95.10
44121;DHT22;29783;52.504;13.478;2022-10-15T03:07:35;13.00;95.10
44121;DHT22;29783;52.504;13.478;2022-10-15T03:10:00;13.00;95.20
44121;DHT22;29783;52.504;13.478;2022-10-15T03:12:26;13.00;95.20
44121;DHT22;29783;52.504;13.478;2022-10-15T03:14:52;13.00;95.20
44121;DHT22;29783;52.504;13.478;2022-10-15T03:17:18;13.00;95.20
44121;DHT22;29783;52.504;13.478;2022-10-15T03:19:44;13.00;95.20
44121;DHT22;29783;52.504;13.478;2022-10-15T03:22:10;13.00;95.20
44121;DHT22;29783;52.504;13.478;2022-10-15T03:24:36;13.00;95.20
44121;DHT22;29783;52.504;13.478;2022-10-15T03:27:02;13.00;95.20
44121;DHT22;29783;52.504;13.478;2022-10-15T03:29:28;13.00;95.20
44121;DHT22;29783;52.504;13.478;2022-10-15T03:31:53;13.00;95.10
44121;DHT22;29783;52.504;13.478;2022-10-15T03:34:19;12.90;95.10
44121;DHT22;29783;52.504;13.478;2022-10-15T03:36:45;12.80;95.10
44121;DHT22;29783;52.504;13.478;2022-10-15T03:39:11;12.70;95.20
44121;DHT22;29783;52.504;13.478;2022-10-15T03:41:38;12.70;95.40
44121;DHT22;29783;52.504;13.478;2022-10-15T03:44:06;12.70;95.50
44121;DHT22;29783;52.504;13.478;2022-10-15T03:46:32;12.70;95.70
44121;DHT22;29783;52.504;13.478;2022-10-15T03:48:59;12.60;95.70
44121;DHT22;29783;52.504;13.478;2022-10-15T03:51:25;12.60;95.80
44121;DHT22;29783;52.504;13.478;2022-10-15T03:53:50;12.60;96.00
44121;DHT22;29783;52.504;13.478;2022-10-15T03:56:16;12.60;96.10
44121;DHT22;29783;52.504;13.478;2022-10-15T03:58:42;12.70;96.10
44121;DHT22;29783;52.504;13.478;2022-10-15T04:01:12;12.70;96.20
44121;DHT22;29783;52.504;13.478;2022-10-15T04:03:38;12.70;96.30
44121;DHT22;29783;52.504;13.478;2022-10-15T04:06:04;12.70;96.30
44121;DHT22;29783;52.504;13.478;2022-10-15T04:08:30;12.80;96.30
44121;DHT22;29783;52.504;13.478;2022-10-15T04:10:56;12.80;96.30
44121;DHT22;29783;52.504;13.478;2022-10-15T04:13:23;12.80;96.30
44121;DHT22;29783;52.504;13.478;2022-10-15T04:15:49;12.90;96.20
44121;DHT22;29783;52.504;13.478;2022-10-15T04:18:15;12.80;96.20
44121;DHT22;29783;52.504;13.478;2022-10-15T04:20:41;12.80;96.20
44121;DHT22;29783;52.504;13.478;2022-10-15T04:23:07;12.80;96.20
44121;DHT22;29783;52.504;13.478;2022-10-15T04:25:34;12.80;96.10
44121;DHT22;29783;52.504;13.478;2022-10-15T04:28:01;12.80;96.00
44121;DHT22;29783;52.504;13.478;2022-10-15T04:30:27;12.70;96.00
44121;DHT22;29783;52.504;13.478;2022-10-15T04:32:52;12.70;96.10
44121;DHT22;29783;52.504;13.478;2022-10-15T04:35:19;12.70;96.10
44121;DHT22;29783;52.504;13.478;2022-10-15T04:37:45;12.70;96.20
44121;DHT22;29783;52.504;13.478;2022-10-15T04:40:11;12.70;96.20
44121;DHT22;29783;52.504;13.478;2022-10-15T04:42:37;12.80;96.30
44121;DHT22;29783;52.504;13.478;2022-10-15T04:45:05;12.80;96.30
44121;DHT22;29783;52.504;13.478;2022-10-15T04:47:31;12.80;96.30
44121;DHT22;29783;52.504;13.478;2022-10-15T04:49:57;12.80;96.30
44121;DHT22;29783;52.504;13.478;2022-10-15T04:52:23;12.80;96.30
44121;DHT22;29783;52.504;13.478;2022-10-15T04:54:48;12.80;96.30
44121;DHT22;29783;52.504;13.478;2022-10-15T04:57:15;12.80;96.30
44121;DHT22;29783;52.504;13.478;2022-10-15T04:59:40;12.80;96.30
44121;DHT22;29783;52.504;13.478;2022-10-15T05:02:08;12.80;96.30
44121;DHT22;29783;52.504;13.478;2022-10-15T05:04:33;12.90;96.40
44121;DHT22;29783;52.504;13.478;2022-10-15T05:06:59;12.90;96.40
44121;DHT22;29783;52.504;13.478;2022-10-15T05:09:25;12.90;96.40
44121;DHT22;29783;52.504;13.478;2022-10-15T05:11:51;13.00;96.30
44121;DHT22;29783;52.504;13.478;2022-10-15T05:14:17;13.00;96.20
44121;DHT22;29783;52.504;13.478;2022-10-15T05:16:42;13.00;96.20
44121;DHT22;29783;52.504;13.478;2022-10-15T05:19:10;13.00;96.10
44121;DHT22;29783;52.504;13.478;2022-10-15T05:21:36;13.00;96.10
44121;DHT22;29783;52.504;13.478;2022-10-15T05:24:03;13.00;96.00
44121;DHT22;29783;52.504;13.478;2022-10-15T05:26:30;13.00;95.90
44121;DHT22;29783;52.504;13.478;2022-10-15T05:28:58;13.00;95.90
44121;DHT22;29783;52.504;13.478;2022-10-15T05:31:26;13.00;95.80
44121;DHT22;29783;52.504;13.478;2022-10-15T05:33:53;13.00;95.80
44121;DHT22;29783;52.504;13.478;2022-10-15T05:36:27;13.00;95.80
44121;DHT22;29783;52.504;13.478;2022-10-15T05:38:56;13.00;95.90
44121;DHT22;29783;52.504;13.478;2022-10-15T05:41:22;13.00;96.00
44121;DHT22;29783;52.504;13.478;2022-10-15T05:43:49;13.10;96.00
44121;DHT22;29783;52.504;13.478;2022-10-15T05:46:16;13.10;95.90
44121;DHT22;29783;52.504;13.478;2022-10-15T05:48:42;13.10;95.90
44121;DHT22;29783;52.504;13.478;2022-10-15T05:51:10;13.10;95.80
44121;DHT22;29783;52.504;13.478;2022-10-15T05:53:37;13.20;95.80
44121;DHT22;29783;52.504;13.478;2022-10-15T05:56:09;13.20;95.80
44121;DHT22;29783;52.504;13.478;2022-10-15T05:58:35;13.20;95.70
44121;DHT22;29783;52.504;13.478;2022-10-15T06:01:04;13.30;95.70
44121;DHT22;29783;52.504;13.478;2022-10-15T06:03:30;13.30;95.50
44121;DHT22;29783;52.504;13.478;2022-10-15T06:05:56;13.30;95.40
44121;DHT22;29783;52.504;13.478;2022-10-15T06:08:22;13.30;95.30
44121;DHT22;29783;52.504;13.478;2022-10-15T06:10:48;13.30;95.20
44121;DHT22;29783;52.504;13.478;2022-10-15T06:13:14;13.40;95.10
44121;DHT22;29783;52.504;13.478;2022-10-15T06:15:42;13.40;95.10
44121;DHT22;29783;52.504;13.478;2022-10-15T06:18:08;13.40;95.00
44121;DHT22;29783;52.504;13.478;2022-10-15T06:20:35;13.50;94.90
44121;DHT22;29783;52.504;13.478;2022-10-15T06:23:03;13.50;94.90
44121;DHT22;29783;52.504;13.478;2022-10-15T06:25:29;13.50;94.70
44121;DHT22;29783;52.504;13.478;2022-10-15T06:27:59;13.50;94.60
44121;DHT22;29783;52.504;13.478;2022-10-15T06:30:25;13.50;94.40
44121;DHT22;29783;52.504;13.478;2022-10-15T06:32:52;13.50;94.50
44121;DHT22;29783;52.504;13.478;2022-10-15T06:35:20;13.60;94.50
44121;DHT22;29783;52.504;13.478;2022-10-15T06:37:46;13.70;94.40
44121;DHT22;29783;52.504;13.478;2022-10-15T06:40:12;13.70;94.20
44121;DHT22;29783;52.504;13.478;2022-10-15T06:42:39;13.70;94.00
44121;DHT22;29783;52.504;13.478;2022-10-15T06:45:05;13.70;94.00
44121;DHT22;29783;52.504;13.478;2022-10-15T06:47:32;13.70;93.80
44121;DHT22;29783;52.504;13.478;2022-10-15T06:49:58;13.70;93.80
44121;DHT22;29783;52.504;13.478;2022-10-15T06:52:24;13.80;93.40
44121;DHT22;29783;52.504;13.478;2022-10-15T06:54:51;13.80;93.30
44121;DHT22;29783;52.504;13.478;2022-10-15T06:57:17;13.70;93.30
44121;DHT22;29783;52.504;13.478;2022-10-15T06:59:42;13.70;93.50
44121;DHT22;29783;52.504;13.478;2022-10-15T07:02:09;13.60;93.70
44121;DHT22;29783;52.504;13.478;2022-10-15T07:04:35;13.60;93.90
44121;DHT22;29783;52.504;13.478;2022-10-15T07:07:01;13.50;94.00
44121;DHT22;29783;52.504;13.478;2022-10-15T07:09:27;13.50;93.90
44121;DHT22;29783;52.504;13.478;2022-10-15T07:11:52;13.50;94.20
44121;DHT22;29783;52.504;13.478;2022-10-15T07:14:18;13.60;94.40
44121;DHT22;29783;52.504;13.478;2022-10-15T07:16:44;13.70;94.50
44121;DHT22;29783;52.504;13.478;2022-10-15T07:19:10;13.90;94.20
44121;DHT22;29783;52.504;13.478;2022-10-15T07:21:35;14.10;94.00
44121;DHT22;29783;52.504;13.478;2022-10-15T07:24:01;14.30;92.90
44121;DHT22;29783;52.504;13.478;2022-10-15T07:26:27;14.50;91.80
44121;DHT22;29783;52.504;13.478;2022-10-15T07:28:54;14.60;91.40
44121;DHT22;29783;52.504;13.478;2022-10-15T07:31:20;14.60;91.10
44121;DHT22;29783;52.504;13.478;2022-10-15T07:33:45;14.70;91.30
44121;DHT22;29783;52.504;13.478;2022-10-15T07:36:11;14.70;91.00
44121;DHT22;29783;52.504;13.478;2022-10-15T07:38:37;14.80;90.50
44121;DHT22;29783;52.504;13.478;2022-10-15T07:41:05;14.90;90.60
44121;DHT22;29783;52.504;13.478;2022-10-15T07:43:32;15.20;89.90
44121;DHT22;29783;52.504;13.478;2022-10-15T07:45:58;15.40;88.90
44121;DHT22;29783;52.504;13.478;2022-10-15T07:48:24;15.40;88.50
44121;DHT22;29783;52.504;13.478;2022-10-15T07:50:58;15.40;88.60
44121;DHT22;29783;52.504;13.478;2022-10-15T07:53:24;15.30;88.80
44121;DHT22;29783;52.504;13.478;2022-10-15T07:55:50;15.30;89.00
44121;DHT22;29783;52.504;13.478;2022-10-15T07:58:16;15.30;89.10
44121;DHT22;29783;52.504;13.478;2022-10-15T08:00:43;15.30;88.90
44121;DHT22;29783;52.504;13.478;2022-10-15T08:03:08;15.30;88.70
44121;DHT22;29783;52.504;13.478;2022-10-15T08:05:34;15.30;89.00
44121;DHT22;29783;52.504;13.478;2022-10-15T08:08:00;15.30;89.20
44121;DHT22;29783;52.504;13.478;2022-10-15T08:10:27;15.30;89.20
44121;DHT22;29783;52.504;13.478;2022-10-15T08:12:52;15.40;89.10
44121;DHT22;29783;52.504;13.478;2022-10-15T08:15:18;15.30;89.10
44121;DHT22;29783;52.504;13.478;2022-10-15T08:17:44;15.50;88.90
44121;DHT22;29783;52.504;13.478;2022-10-15T08:20:11;15.60;88.70
44121;DHT22;29783;52.504;13.478;2022-10-15T08:22:37;15.60;88.60
44121;DHT22;29783;52.504;13.478;2022-10-15T08:25:04;15.70;87.90
44121;DHT22;29783;52.504;13.478;2022-10-15T08:27:29;15.80;87.20
44121;DHT22;29783;52.504;13.478;2022-10-15T08:29:56;16.00;86.60
44121;DHT22;29783;52.504;13.478;2022-10-15T08:32:22;16.20;86.30
44121;DHT22;29783;52.504;13.478;2022-10-15T08:34:48;16.30;85.40
44121;DHT22;29783;52.504;13.478;2022-10-15T08:38:16;16.50;84.40
44121;DHT22;29783;52.504;13.478;2022-10-15T08:40:25;16.70;84.00
44121;DHT22;29783;52.504;13.478;2022-10-15T08:42:51;17.00;82.70
44121;DHT22;29783;52.504;13.478;2022-10-15T08:45:23;17.10;82.50
44121;DHT22;29783;52.504;13.478;2022-10-15T08:48:06;17.10;82.60
44121;DHT22;29783;52.504;13.478;2022-10-15T08:56:37;16.90;82.90
44121;DHT22;29783;52.504;13.478;2022-10-15T08:59:33;16.60;83.40
44121;DHT22;29783;52.504;13.478;2022-10-15T09:02:20;16.60;83.90
44121;DHT22;29783;52.504;13.478;2022-10-15T09:07:41;16.80;83.80
44121;DHT22;29783;52.504;13.478;2022-10-15T09:10:16;17.10;82.70
44121;DHT22;29783;52.504;13.478;2022-10-15T09:13:00;17.30;82.00
44121;DHT22;29783;52.504;13.478;2022-10-15T09:15:27;17.30;81.60
44121;DHT22;29783;52.504;13.478;2022-10-15T09:17:56;17.30;81.60
44121;DHT22;29783;52.504;13.478;2022-10-15T09:20:33;17.40;81.50
44121;DHT22;29783;52.504;13.478;2022-10-15T09:22:59;17.50;80.70
44121;DHT22;29783;52.504;13.478;2022-10-15T09:25:31;17.70;80.10
44121;DHT22;29783;52.504;13.478;2022-10-15T09:28:07;17.70;79.70
44121;DHT22;29783;52.504;13.478;2022-10-15T09:31:07;17.90;78.90
44121;DHT22;29783;52.504;13.478;2022-10-15T09:33:44;18.20;78.50
44121;DHT22;29783;52.504;13.478;2022-10-15T09:41:46;18.30;77.50
44121;DHT22;29783;52.504;13.478;2022-10-15T09:44:15;18.50;77.70
44121;DHT22;29783;52.504;13.478;2022-10-15T09:46:46;18.80;76.10
44121;DHT22;29783;52.504;13.478;2022-10-15T09:49:15;19.20;74.30
44121;DHT22;29783;52.504;13.478;2022-10-15T09:52:08;19.10;74.60
44121;DHT22;29783;52.504;13.478;2022-10-15T09:57:46;19.30;73.40
44121;DHT22;29783;52.504;13.478;2022-10-15T10:00:13;19.20;73.00
44121;DHT22;29783;52.504;13.478;2022-10-15T10:02:40;18.70;74.60
44121;DHT22;29783;52.504;13.478;2022-10-15T10:05:26;18.60;75.70
44121;DHT22;29783;52.504;13.478;2022-10-15T10:08:09;18.40;76.10
44121;DHT22;29783;52.504;13.478;2022-10-15T10:10:36;18.30;76.50
44121;DHT22;29783;52.504;13.478;2022-10-15T10:13:05;18.30;76.40
44121;DHT22;29783;52.504;13.478;2022-10-15T10:15:34;18.30;77.00
44121;DHT22;29783;52.504;13.478;2022-10-15T10:18:01;18.40;76.60
44121;DHT22;29783;52.504;13.478;2022-10-15T10:20:32;18.60;75.70
44121;DHT22;29783;52.504;13.478;2022-10-15T10:23:00;18.70;76.00
44121;DHT22;29783;52.504;13.478;2022-10-15T10:25:27;18.70;75.50
44121;DHT22;29783;52.504;13.478;2022-10-15T10:30:52;19.00;74.00
44121;DHT22;29783;52.504;13.478;2022-10-15T10:33:28;19.20;73.90
44121;DHT22;29783;52.504;13.478;2022-10-15T10:35:54;19.10;74.10
44121;DHT22;29783;52.504;13.478;2022-10-15T10:38:24;19.30;73.70
44121;DHT22;29783;52.504;13.478;2022-10-15T10:40:53;19.20;74.00
44121;DHT22;29783;52.504;13.478;2022-10-15T10:43:28;19.30;74.00
44121;DHT22;29783;52.504;13.478;2022-10-15T10:45:56;19.70;72.90
44121;DHT22;29783;52.504;13.478;2022-10-15T10:48:26;20.20;72.30
44121;DHT22;29783;52.504;13.478;2022-10-15T10:51:14;19.90;72.10
44121;DHT22;29783;52.504;13.478;2022-10-15T10:53:47;19.40;73.10
44121;DHT22;29783;52.504;13.478;2022-10-15T10:56:48;19.50;73.00
44121;DHT22;29783;52.504;13.478;2022-10-15T10:59:26;19.70;72.70
44121;DHT22;29783;52.504;13.478;2022-10-15T11:01:53;19.80;71.60
44121;DHT22;29783;52.504;13.478;2022-10-15T11:04:29;20.10;70.40
44121;DHT22;29783;52.504;13.478;2022-10-15T11:09:51;19.50;71.40
44121;DHT22;29783;52.504;13.478;2022-10-15T11:23:27;19.80;70.50
44121;DHT22;29783;52.504;13.478;2022-10-15T11:26:25;19.80;70.60
44121;DHT22;29783;52.504;13.478;2022-10-15T11:31:45;20.00;70.80
44121;DHT22;29783;52.504;13.478;2022-10-15T11:34:24;19.80;71.30
44121;DHT22;29783;52.504;13.478;2022-10-15T11:42:24;19.80;71.50
44121;DHT22;29783;52.504;13.478;2022-10-15T11:48:17;20.40;69.10
44121;DHT22;29783;52.504;13.478;2022-10-15T11:50:56;20.50;68.10
44121;DHT22;29783;52.504;13.478;2022-10-15T11:56:18;20.80;67.10
44121;DHT22;29783;52.504;13.478;2022-10-15T11:58:51;20.70;67.30
44121;DHT22;29783;52.504;13.478;2022-10-15T12:01:29;20.80;66.70
44121;DHT22;29783;52.504;13.478;2022-10-15T12:04:10;20.50;67.70
44121;DHT22;29783;52.504;13.478;2022-10-15T12:06:42;20.70;67.10
44121;DHT22;29783;52.504;13.478;2022-10-15T12:09:14;20.50;68.00
44121;DHT22;29783;52.504;13.478;2022-10-15T12:11:47;20.40;68.60
44121;DHT22;29783;52.504;13.478;2022-10-15T12:14:40;20.70;67.30
44121;DHT22;29783;52.504;13.478;2022-10-15T12:20:15;20.30;68.10
44121;DHT22;29783;52.504;13.478;2022-10-15T12:25:49;20.40;67.00
44121;DHT22;29783;52.504;13.478;2022-10-15T12:28:23;20.40;67.60
44121;DHT22;29783;52.504;13.478;2022-10-15T12:30:59;20.50;67.50
44121;DHT22;29783;52.504;13.478;2022-10-15T12:33:50;20.30;67.70
44121;DHT22;29783;52.504;13.478;2022-10-15T12:36:26;20.20;68.00
44121;DHT22;29783;52.504;13.478;2022-10-15T12:41:44;19.70;69.80
44121;DHT22;29783;52.504;13.478;2022-10-15T12:44:29;19.40;71.00
44121;DHT22;29783;52.504;13.478;2022-10-15T12:47:05;19.40;71.40
44121;DHT22;29783;52.504;13.478;2022-10-15T12:55:20;19.30;71.90
44121;DHT22;29783;52.504;13.478;2022-10-15T13:02:51;19.80;71.00
44121;DHT22;29783;52.504;13.478;2022-10-15T13:05:25;20.10;70.20
44121;DHT22;29783;52.504;13.478;2022-10-15T13:07:53;20.20;70.10
44121;DHT22;29783;52.504;13.478;2022-10-15T13:10:56;20.20;70.00
44121;DHT22;29783;52.504;13.478;2022-10-15T13:13:27;20.20;69.70
44121;DHT22;29783;52.504;13.478;2022-10-15T13:16:07;20.20;69.80
44121;DHT22;29783;52.504;13.478;2022-10-15T13:18:34;20.20;69.30
44121;DHT22;29783;52.504;13.478;2022-10-15T13:21:00;20.00;70.30
44121;DHT22;29783;52.504;13.478;2022-10-15T13:23:32;19.90;70.80
44121;DHT22;29783;52.504;13.478;2022-10-15T13:26:23;19.70;71.40
44121;DHT22;29783;52.504;13.478;2022-10-15T13:28:52;19.60;71.50
44121;DHT22;29783;52.504;13.478;2022-10-15T13:31:25;19.30;72.40
44121;DHT22;29783;52.504;13.478;2022-10-15T13:34:05;19.20;73.30
44121;DHT22;29783;52.504;13.478;2022-10-15T13:36:34;19.30;73.10
44121;DHT22;29783;52.504;13.478;2022-10-15T13:39:06;19.20;73.10
44121;DHT22;29783;52.504;13.478;2022-10-15T13:41:35;19.20;73.00
44121;DHT22;29783;52.504;13.478;2022-10-15T13:44:01;19.30;72.80
44121;DHT22;29783;52.504;13.478;2022-10-15T13:46:30;19.20;72.80
44121;DHT22;29783;52.504;13.478;2022-10-15T13:49:01;19.10;73.30
44121;DHT22;29783;52.504;13.478;2022-10-15T13:51:39;19.00;73.50
44121;DHT22;29783;52.504;13.478;2022-10-15T13:54:11;18.90;73.80
44121;DHT22;29783;52.504;13.478;2022-10-15T13:56:45;19.00;73.50
44121;DHT22;29783;52.504;13.478;2022-10-15T13:59:15;19.10;73.40
44121;DHT22;29783;52.504;13.478;2022-10-15T14:01:46;19.30;72.70
44121;DHT22;29783;52.504;13.478;2022-10-15T14:04:17;19.30;72.40
44121;DHT22;29783;52.504;13.478;2022-10-15T14:06:59;19.40;72.60
44121;DHT22;29783;52.504;13.478;2022-10-15T14:09:38;20.30;70.10
44121;DHT22;29783;52.504;13.478;2022-10-15T14:12:06;21.20;66.70
44121;DHT22;29783;52.504;13.478;2022-10-15T14:14:39;22.20;64.30
44121;DHT22;29783;52.504;13.478;2022-10-15T14:17:06;23.90;59.60
44121;DHT22;29783;52.504;13.478;2022-10-15T14:19:35;24.90;55.70
44121;DHT22;29783;52.504;13.478;2022-10-15T14:22:01;24.90;54.40
44121;DHT22;29783;52.504;13.478;2022-10-15T14:24:37;23.20;59.00
44121;DHT22;29783;52.504;13.478;2022-10-15T14:27:25;22.20;62.20
44121;DHT22;29783;52.504;13.478;2022-10-15T14:29:59;21.20;65.40
44121;DHT22;29783;52.504;13.478;2022-10-15T14:32:44;20.40;68.30
44121;DHT22;29783;52.504;13.478;2022-10-15T14:35:33;19.70;70.60
44121;DHT22;29783;52.504;13.478;2022-10-15T14:38:04;19.60;71.90
44121;DHT22;29783;52.504;13.478;2022-10-15T14:40:39;19.40;72.40
44121;DHT22;29783;52.504;13.478;2022-10-15T14:43:14;19.50;72.60
44121;DHT22;29783;52.504;13.478;2022-10-15T14:48:23;21.50;66.70
44121;DHT22;29783;52.504;13.478;2022-10-15T14:50:50;22.40;63.20
44121;DHT22;29783;52.504;13.478;2022-10-15T14:53:28;22.20;63.90
44121;DHT22;29783;52.504;13.478;2022-10-15T14:55:58;21.90;64.40
44121;DHT22;29783;52.504;13.478;2022-10-15T14:58:26;21.00;67.70
44121;DHT22;29783;52.504;13.478;2022-10-15T15:01:04;20.90;68.60
44121;DHT22;29783;52.504;13.478;2022-10-15T15:03:40;21.20;67.70
44121;DHT22;29783;52.504;13.478;2022-10-15T15:06:06;21.70;65.40
44121;DHT22;29783;52.504;13.478;2022-10-15T15:08:32;21.40;66.40
44121;DHT22;29783;52.504;13.478;2022-10-15T15:11:01;21.10;67.80
44121;DHT22;29783;52.504;13.478;2022-10-15T15:13:29;21.30;67.20
44121;DHT22;29783;52.504;13.478;2022-10-15T15:15:55;21.20;67.70
44121;DHT22;29783;52.504;13.478;2022-10-15T15:18:21;20.80;68.70
44121;DHT22;29783;52.504;13.478;2022-10-15T15:20:48;20.30;70.30
44121;DHT22;29783;52.504;13.478;2022-10-15T15:23:20;20.40;70.30
44121;DHT22;29783;52.504;13.478;2022-10-15T15:25:46;20.00;71.30
44121;DHT22;29783;52.504;13.478;2022-10-15T15:28:18;19.60;73.00
44121;DHT22;29783;52.504;13.478;2022-10-15T15:31:07;19.30;74.00
44121;DHT22;29783;52.504;13.478;2022-10-15T15:33:37;19.00;75.30
44121;DHT22;29783;52.504;13.478;2022-10-15T15:36:08;19.00;75.60
44121;DHT22;29783;52.504;13.478;2022-10-15T15:38:34;19.00;75.40
44121;DHT22;29783;52.504;13.478;2022-10-15T15:41:15;18.80;76.10
44121;DHT22;29783;52.504;13.478;2022-10-15T15:43:41;18.40;77.40
44121;DHT22;29783;52.504;13.478;2022-10-15T15:46:07;18.20;78.30
44121;DHT22;29783;52.504;13.478;2022-10-15T15:48:34;18.00;78.90
44121;DHT22;29783;52.504;13.478;2022-10-15T15:53:37;17.70;80.40
44121;DHT22;29783;52.504;13.478;2022-10-15T15:56:03;17.50;81.30
44121;DHT22;29783;52.504;13.478;2022-10-15T15:58:28;17.30;81.80
44121;DHT22;29783;52.504;13.478;2022-10-15T16:00:54;17.20;82.40
44121;DHT22;29783;52.504;13.478;2022-10-15T16:03:20;17.10;83.00
44121;DHT22;29783;52.504;13.478;2022-10-15T16:05:46;17.00;83.60
44121;DHT22;29783;52.504;13.478;2022-10-15T16:08:14;16.80;84.00
44121;DHT22;29783;52.504;13.478;2022-10-15T16:10:40;16.70;84.40
44121;DHT22;29783;52.504;13.478;2022-10-15T16:13:05;16.50;85.20
44121;DHT22;29783;52.504;13.478;2022-10-15T16:15:31;16.40;85.80
44121;DHT22;29783;52.504;13.478;2022-10-15T16:17:57;16.30;86.10
44121;DHT22;29783;52.504;13.478;2022-10-15T16:20:22;16.20;86.40
44121;DHT22;29783;52.504;13.478;2022-10-15T16:22:49;16.00;86.80
44121;DHT22;29783;52.504;13.478;2022-10-15T16:25:15;15.80;87.30
44121;DHT22;29783;52.504;13.478;2022-10-15T16:27:41;15.70;88.10
44121;DHT22;29783;52.504;13.478;2022-10-15T16:30:10;15.70;88.40
44121;DHT22;29783;52.504;13.478;2022-10-15T16:32:36;15.50;88.70
44121;DHT22;29783;52.504;13.478;2022-10-15T16:35:02;15.40;89.00
44121;DHT22;29783;52.504;13.478;2022-10-15T16:37:27;15.40;89.80
44121;DHT22;29783;52.504;13.478;2022-10-15T16:39:53;15.20;89.80
44121;DHT22;29783;52.504;13.478;2022-10-15T16:42:19;15.10;90.00
44121;DHT22;29783;52.504;13.478;2022-10-15T16:44:45;15.00;90.40
44121;DHT22;29783;52.504;13.478;2022-10-15T16:47:10;14.90;90.70
44121;DHT22;29783;52.504;13.478;2022-10-15T16:49:36;14.80;91.00
44121;DHT22;29783;52.504;13.478;2022-10-15T16:52:02;14.70;91.30
44121;DHT22;29783;52.504;13.478;2022-10-15T16:54:27;14.70;91.70
44121;DHT22;29783;52.504;13.478;2022-10-15T16:56:53;14.60;92.00
44121;DHT22;29783;52.504;13.478;2022-10-15T16:59:19;14.60;92.20
44121;DHT22;29783;52.504;13.478;2022-10-15T17:01:45;14.50;92.40